sensor_id;sensor_type;location;lat;lon;timestamp;P1;durP1;ratioP1;P2;durP2;ratioP2
8478;SDS011;4276;49.354;6.804;2023-05-17T00:00:12;3.47;;;2.33;;
8478;SDS011;4276;49.354;6.804;2023-05-17T00:02:40;3.50;;;2.15;;
8478;SDS011;4276;49.354;6.804;2023-05-17T00:05:06;3.25;;;2.08;;
8478;SDS011;4276;49.354;6.804;2023-05-17T00:07:33;4.35;;;2.22;;
8478;SDS011;4276;49.354;6.804;2023-05-17T00:10:00;3.95;;;2.28;;
8478;SDS011;4276;49.354;6.804;2023-05-17T00:12:26;3.55;;;2.28;;
8478;SDS011;4276;49.354;6.804;2023-05-17T00:14:53;4.22;;;2.47;;
8478;SDS011;4276;49.354;6.804;2023-05-17T00:17:19;2.67;;;2.38;;
8478;SDS011;4276;49.354;6.804;2023-05-17T00:19:46;3.25;;;2.50;;
8478;SDS011;4276;49.354;6.804;2023-05-17T00:22:12;4.25;;;2.40;;
8478;SDS011;4276;49.354;6.804;2023-05-17T00:24:39;3.38;;;2.20;;
8478;SDS011;4276;49.354;6.804;2023-05-17T00:27:06;3.55;;;2.03;;
8478;SDS011;4276;49.354;6.804;2023-05-17T00:29:32;2.05;;;1.95;;
8478;SDS011;4276;49.354;6.804;2023-05-17T00:31:59;2.63;;;2.05;;
8478;SDS011;4276;49.354;6.804;2023-05-17T00:34:25;2.50;;;2.30;;
8478;SDS011;4276;49.354;6.804;2023-05-17T00:36:52;5.22;;;2.30;;
8478;SDS011;4276;49.354;6.804;2023-05-17T00:39:18;4.78;;;1.90;;
8478;SDS011;4276;49.354;6.804;2023-05-17T00:41:45;2.58;;;2.30;;
8478;SDS011;4276;49.354;6.804;2023-05-17T00:44:11;2.67;;;2.10;;
8478;SDS011;4276;49.354;6.804;2023-05-17T00:46:38;2.88;;;2.28;;
8478;SDS011;4276;49.354;6.804;2023-05-17T00:49:04;2.85;;;2.25;;
8478;SDS011;4276;49.354;6.804;2023-05-17T00:51:31;2.95;;;2.20;;
8478;SDS011;4276;49.354;6.804;2023-05-17T00:53:58;5.10;;;2.50;;
8478;SDS011;4276;49.354;6.804;2023-05-17T00:56:24;4.22;;;2.30;;
8478;SDS011;4276;49.354;6.804;2023-05-17T00:58:51;3.72;;;2.55;;
8478;SDS011;4276;49.354;6.804;2023-05-17T01:01:18;4.47;;;2.70;;
8478;SDS011;4276;49.354;6.804;2023-05-17T01:03:45;4.53;;;2.53;;
8478;SDS011;4276;49.354;6.804;2023-05-17T01:06:12;3.10;;;2.15;;
8478;SDS011;4276;49.354;6.804;2023-05-17T01:08:38;3.83;;;2.40;;
8478;SDS011;4276;49.354;6.804;2023-05-17T01:11:08;7.00;;;2.60;;
8478;SDS011;4276;49.354;6.804;2023-05-17T01:14:42;4.05;;;2.38;;
8478;SDS011;4276;49.354;6.804;2023-05-17T01:16:45;3.60;;;2.42;;
8478;SDS011;4276;49.354;6.804;2023-05-17T01:22:09;3.00;;;2.53;;
8478;SDS011;4276;49.354;6.804;2023-05-17T01:24:52;3.05;;;2.28;;
8478;SDS011;4276;49.354;6.804;2023-05-17T01:27:26;2.47;;;2.20;;
8478;SDS011;4276;49.354;6.804;2023-05-17T01:29:54;3.55;;;2.20;;
8478;SDS011;4276;49.354;6.804;2023-05-17T01:32:24;4.75;;;2.70;;
8478;SDS011;4276;49.354;6.804;2023-05-17T01:34:51;4.25;;;2.75;;
8478;SDS011;4276;49.354;6.804;2023-05-17T01:37:18;4.35;;;2.53;;
8478;SDS011;4276;49.354;6.804;2023-05-17T01:39:44;2.95;;;2.30;;
8478;SDS011;4276;49.354;6.804;2023-05-17T01:42:45;2.67;;;2.30;;
8478;SDS011;4276;49.354;6.804;2023-05-17T01:45:17;3.53;;;2.38;;
8478;SDS011;4276;49.354;6.804;2023-05-17T01:50:29;4.38;;;2.85;;
8478;SDS011;4276;49.354;6.804;2023-05-17T01:53:02;4.75;;;2.25;;
8478;SDS011;4276;49.354;6.804;2023-05-17T01:55:49;4.72;;;2.60;;
8478;SDS011;4276;49.354;6.804;2023-05-17T01:58:17;6.57;;;2.72;;
8478;SDS011;4276;49.354;6.804;2023-05-17T02:00:48;2.72;;;2.28;;
8478;SDS011;4276;49.354;6.804;2023-05-17T02:03:18;4.35;;;2.38;;
8478;SDS011;4276;49.354;6.804;2023-05-17T02:05:45;4.00;;;2.30;;
8478;SDS011;4276;49.354;6.804;2023-05-17T02:08:12;2.47;;;2.03;;
8478;SDS011;4276;49.354;6.804;2023-05-17T02:10:39;4.40;;;2.15;;
8478;SDS011;4276;49.354;6.804;2023-05-17T02:13:05;4.40;;;2.50;;
8478;SDS011;4276;49.354;6.804;2023-05-17T02:15:32;3.33;;;2.33;;
8478;SDS011;4276;49.354;6.804;2023-05-17T02:17:58;3.78;;;2.38;;
8478;SDS011;4276;49.354;6.804;2023-05-17T02:20:25;4.57;;;2.35;;
8478;SDS011;4276;49.354;6.804;2023-05-17T02:22:51;3.15;;;2.30;;
8478;SDS011;4276;49.354;6.804;2023-05-17T02:25:18;4.97;;;2.28;;
8478;SDS011;4276;49.354;6.804;2023-05-17T02:27:44;2.72;;;2.20;;
8478;SDS011;4276;49.354;6.804;2023-05-17T02:30:11;3.53;;;2.42;;
8478;SDS011;4276;49.354;6.804;2023-05-17T02:32:42;4.05;;;2.38;;
8478;SDS011;4276;49.354;6.804;2023-05-17T02:35:08;3.42;;;2.63;;
8478;SDS011;4276;49.354;6.804;2023-05-17T02:37:35;3.22;;;2.58;;
8478;SDS011;4276;49.354;6.804;2023-05-17T02:40:01;3.08;;;2.35;;
8478;SDS011;4276;49.354;6.804;2023-05-17T02:42:34;5.57;;;2.35;;
8478;SDS011;4276;49.354;6.804;2023-05-17T02:45:01;3.63;;;2.50;;
8478;SDS011;4276;49.354;6.804;2023-05-17T02:47:28;3.72;;;2.50;;
8478;SDS011;4276;49.354;6.804;2023-05-17T02:49:55;3.33;;;2.35;;
8478;SDS011;4276;49.354;6.804;2023-05-17T02:52:21;4.72;;;2.40;;
8478;SDS011;4276;49.354;6.804;2023-05-17T02:54:48;4.60;;;2.47;;
8478;SDS011;4276;49.354;6.804;2023-05-17T02:57:14;4.45;;;2.10;;
8478;SDS011;4276;49.354;6.804;2023-05-17T02:59:41;3.50;;;2.38;;
8478;SDS011;4276;49.354;6.804;2023-05-17T03:02:07;4.15;;;2.70;;
8478;SDS011;4276;49.354;6.804;2023-05-17T03:04:34;6.57;;;2.40;;
8478;SDS011;4276;49.354;6.804;2023-05-17T03:07:01;2.38;;;2.10;;
8478;SDS011;4276;49.354;6.804;2023-05-17T03:09:28;4.30;;;2.78;;
8478;SDS011;4276;49.354;6.804;2023-05-17T03:11:55;3.35;;;2.50;;
8478;SDS011;4276;49.354;6.804;2023-05-17T03:14:22;5.72;;;2.60;;
8478;SDS011;4276;49.354;6.804;2023-05-17T03:16:48;2.92;;;2.55;;
8478;SDS011;4276;49.354;6.804;2023-05-17T03:19:15;4.30;;;2.17;;
8478;SDS011;4276;49.354;6.804;2023-05-17T03:21:41;2.33;;;2.10;;
8478;SDS011;4276;49.354;6.804;2023-05-17T03:24:08;2.72;;;2.30;;
8478;SDS011;4276;49.354;6.804;2023-05-17T03:26:34;3.13;;;2.13;;
8478;SDS011;4276;49.354;6.804;2023-05-17T03:29:01;4.00;;;2.40;;
8478;SDS011;4276;49.354;6.804;2023-05-17T03:31:28;3.15;;;2.50;;
8478;SDS011;4276;49.354;6.804;2023-05-17T03:33:54;3.03;;;2.25;;
8478;SDS011;4276;49.354;6.804;2023-05-17T03:36:21;4.78;;;2.42;;
8478;SDS011;4276;49.354;6.804;2023-05-17T03:38:48;3.17;;;2.05;;
8478;SDS011;4276;49.354;6.804;2023-05-17T03:41:15;3.42;;;2.17;;
8478;SDS011;4276;49.354;6.804;2023-05-17T03:43:41;3.85;;;2.25;;
8478;SDS011;4276;49.354;6.804;2023-05-17T03:46:08;3.42;;;2.42;;
8478;SDS011;4276;49.354;6.804;2023-05-17T03:48:34;3.72;;;2.42;;
8478;SDS011;4276;49.354;6.804;2023-05-17T03:51:01;2.80;;;2.20;;
8478;SDS011;4276;49.354;6.804;2023-05-17T03:53:28;3.42;;;2.40;;
8478;SDS011;4276;49.354;6.804;2023-05-17T03:55:54;6.80;;;2.45;;
8478;SDS011;4276;49.354;6.804;2023-05-17T03:58:21;3.38;;;2.33;;
8478;SDS011;4276;49.354;6.804;2023-05-17T04:00:47;4.82;;;2.50;;
8478;SDS011;4276;49.354;6.804;2023-05-17T04:03:14;4.45;;;2.80;;
8478;SDS011;4276;49.354;6.804;2023-05-17T04:05:43;2.80;;;2.40;;
8478;SDS011;4276;49.354;6.804;2023-05-17T04:08:11;3.50;;;2.63;;
8478;SDS011;4276;49.354;6.804;2023-05-17T04:10:38;5.72;;;2.75;;
8478;SDS011;4276;49.354;6.804;2023-05-17T04:13:07;2.97;;;2.30;;
8478;SDS011;4276;49.354;6.804;2023-05-17T04:15:34;3.03;;;2.58;;
8478;SDS011;4276;49.354;6.804;2023-05-17T04:18:01;4.78;;;3.30;;
8478;SDS011;4276;49.354;6.804;2023-05-17T04:20:28;3.30;;;2.33;;
8478;SDS011;4276;49.354;6.804;2023-05-17T04:22:55;4.13;;;2.33;;
8478;SDS011;4276;49.354;6.804;2023-05-17T04:25:21;5.65;;;2.75;;
8478;SDS011;4276;49.354;6.804;2023-05-17T04:27:49;7.40;;;3.05;;
8478;SDS011;4276;49.354;6.804;2023-05-17T04:30:15;4.70;;;2.80;;
8478;SDS011;4276;49.354;6.804;2023-05-17T04:32:43;4.30;;;2.72;;
8478;SDS011;4276;49.354;6.804;2023-05-17T04:35:09;5.28;;;2.85;;
8478;SDS011;4276;49.354;6.804;2023-05-17T04:37:36;4.07;;;2.85;;
8478;SDS011;4276;49.354;6.804;2023-05-17T04:40:06;4.32;;;2.65;;
8478;SDS011;4276;49.354;6.804;2023-05-17T04:42:33;3.58;;;2.55;;
8478;SDS011;4276;49.354;6.804;2023-05-17T04:45:00;5.03;;;3.03;;
8478;SDS011;4276;49.354;6.804;2023-05-17T04:47:26;3.33;;;2.35;;
8478;SDS011;4276;49.354;6.804;2023-05-17T04:49:53;3.85;;;3.00;;
8478;SDS011;4276;49.354;6.804;2023-05-17T04:52:21;4.10;;;2.95;;
8478;SDS011;4276;49.354;6.804;2023-05-17T04:54:47;6.03;;;3.45;;
8478;SDS011;4276;49.354;6.804;2023-05-17T04:57:15;3.78;;;2.60;;
8478;SDS011;4276;49.354;6.804;2023-05-17T04:59:41;4.93;;;2.50;;
8478;SDS011;4276;49.354;6.804;2023-05-17T05:02:08;3.72;;;2.60;;
8478;SDS011;4276;49.354;6.804;2023-05-17T05:04:35;4.32;;;2.63;;
8478;SDS011;4276;49.354;6.804;2023-05-17T05:07:02;5.20;;;3.10;;
8478;SDS011;4276;49.354;6.804;2023-05-17T05:09:28;3.75;;;2.67;;
8478;SDS011;4276;49.354;6.804;2023-05-17T05:11:55;4.03;;;2.95;;
8478;SDS011;4276;49.354;6.804;2023-05-17T05:14:21;3.58;;;2.70;;
8478;SDS011;4276;49.354;6.804;2023-05-17T05:16:48;6.28;;;3.10;;
8478;SDS011;4276;49.354;6.804;2023-05-17T05:19:14;4.32;;;3.03;;
8478;SDS011;4276;49.354;6.804;2023-05-17T05:21:43;3.97;;;2.83;;
8478;SDS011;4276;49.354;6.804;2023-05-17T05:24:11;3.60;;;2.90;;
8478;SDS011;4276;49.354;6.804;2023-05-17T05:26:37;6.20;;;3.10;;
8478;SDS011;4276;49.354;6.804;2023-05-17T05:29:04;5.00;;;3.00;;
8478;SDS011;4276;49.354;6.804;2023-05-17T05:31:31;4.93;;;3.20;;
8478;SDS011;4276;49.354;6.804;2023-05-17T05:33:57;7.07;;;3.80;;
8478;SDS011;4276;49.354;6.804;2023-05-17T05:36:24;4.57;;;3.58;;
8478;SDS011;4276;49.354;6.804;2023-05-17T05:38:50;5.90;;;3.90;;
8478;SDS011;4276;49.354;6.804;2023-05-17T05:41:19;4.18;;;3.78;;
8478;SDS011;4276;49.354;6.804;2023-05-17T05:43:46;4.50;;;4.10;;
8478;SDS011;4276;49.354;6.804;2023-05-17T05:46:12;6.25;;;4.05;;
8478;SDS011;4276;49.354;6.804;2023-05-17T05:48:39;4.97;;;3.72;;
8478;SDS011;4276;49.354;6.804;2023-05-17T05:51:07;7.60;;;4.93;;
8478;SDS011;4276;49.354;6.804;2023-05-17T05:53:34;5.45;;;4.25;;
8478;SDS011;4276;49.354;6.804;2023-05-17T05:56:00;5.80;;;4.25;;
8478;SDS011;4276;49.354;6.804;2023-05-17T05:58:27;5.20;;;4.18;;
8478;SDS011;4276;49.354;6.804;2023-05-17T06:00:54;5.60;;;3.97;;
8478;SDS011;4276;49.354;6.804;2023-05-17T06:03:22;6.90;;;4.13;;
8478;SDS011;4276;49.354;6.804;2023-05-17T06:05:49;5.78;;;3.97;;
8478;SDS011;4276;49.354;6.804;2023-05-17T06:08:16;4.43;;;4.03;;
8478;SDS011;4276;49.354;6.804;2023-05-17T06:10:44;5.38;;;4.03;;
8478;SDS011;4276;49.354;6.804;2023-05-17T06:13:11;10.02;;;4.80;;
8478;SDS011;4276;49.354;6.804;2023-05-17T06:15:38;6.30;;;4.30;;
8478;SDS011;4276;49.354;6.804;2023-05-17T06:18:05;4.03;;;3.63;;
8478;SDS011;4276;49.354;6.804;2023-05-17T06:20:32;6.07;;;4.03;;
8478;SDS011;4276;49.354;6.804;2023-05-17T06:22:58;6.45;;;3.97;;
8478;SDS011;4276;49.354;6.804;2023-05-17T06:25:25;6.40;;;4.28;;
8478;SDS011;4276;49.354;6.804;2023-05-17T06:27:51;4.40;;;3.88;;
8478;SDS011;4276;49.354;6.804;2023-05-17T06:30:18;3.78;;;3.45;;
8478;SDS011;4276;49.354;6.804;2023-05-17T06:32:44;5.85;;;3.97;;
8478;SDS011;4276;49.354;6.804;2023-05-17T06:35:11;7.65;;;3.53;;
8478;SDS011;4276;49.354;6.804;2023-05-17T06:37:37;6.38;;;3.88;;
8478;SDS011;4276;49.354;6.804;2023-05-17T06:40:05;5.45;;;3.75;;
8478;SDS011;4276;49.354;6.804;2023-05-17T06:42:41;5.28;;;3.75;;
8478;SDS011;4276;49.354;6.804;2023-05-17T06:45:08;5.93;;;3.50;;
8478;SDS011;4276;49.354;6.804;2023-05-17T06:47:35;5.60;;;3.72;;
8478;SDS011;4276;49.354;6.804;2023-05-17T06:50:02;6.45;;;4.30;;
8478;SDS011;4276;49.354;6.804;2023-05-17T06:52:29;4.80;;;4.20;;
8478;SDS011;4276;49.354;6.804;2023-05-17T06:54:56;5.65;;;3.95;;
8478;SDS011;4276;49.354;6.804;2023-05-17T06:57:22;8.05;;;3.97;;
8478;SDS011;4276;49.354;6.804;2023-05-17T06:59:50;4.63;;;3.97;;
8478;SDS011;4276;49.354;6.804;2023-05-17T07:02:17;4.72;;;4.25;;
8478;SDS011;4276;49.354;6.804;2023-05-17T07:04:44;5.57;;;4.13;;
8478;SDS011;4276;49.354;6.804;2023-05-17T07:07:11;6.00;;;4.47;;
8478;SDS011;4276;49.354;6.804;2023-05-17T07:09:37;5.18;;;4.68;;
8478;SDS011;4276;49.354;6.804;2023-05-17T07:12:05;5.97;;;4.70;;
8478;SDS011;4276;49.354;6.804;2023-05-17T07:14:31;6.47;;;4.90;;
8478;SDS011;4276;49.354;6.804;2023-05-17T07:16:58;6.22;;;5.05;;
8478;SDS011;4276;49.354;6.804;2023-05-17T07:19:24;6.43;;;4.60;;
8478;SDS011;4276;49.354;6.804;2023-05-17T07:21:54;5.93;;;5.43;;
8478;SDS011;4276;49.354;6.804;2023-05-17T07:24:22;7.43;;;5.47;;
8478;SDS011;4276;49.354;6.804;2023-05-17T07:26:49;8.50;;;5.47;;
8478;SDS011;4276;49.354;6.804;2023-05-17T07:29:17;8.27;;;6.05;;
8478;SDS011;4276;49.354;6.804;2023-05-17T07:31:44;7.07;;;6.25;;
8478;SDS011;4276;49.354;6.804;2023-05-17T07:34:11;6.78;;;6.07;;
8478;SDS011;4276;49.354;6.804;2023-05-17T07:36:38;8.27;;;6.00;;
8478;SDS011;4276;49.354;6.804;2023-05-17T07:39:05;6.60;;;5.95;;
8478;SDS011;4276;49.354;6.804;2023-05-17T07:41:31;8.45;;;7.32;;
8478;SDS011;4276;49.354;6.804;2023-05-17T07:43:59;7.10;;;6.38;;
8478;SDS011;4276;49.354;6.804;2023-05-17T07:46:25;7.70;;;6.90;;
8478;SDS011;4276;49.354;6.804;2023-05-17T07:48:52;7.65;;;6.95;;
8478;SDS011;4276;49.354;6.804;2023-05-17T07:51:24;8.68;;;6.85;;
8478;SDS011;4276;49.354;6.804;2023-05-17T07:53:51;7.88;;;7.10;;
8478;SDS011;4276;49.354;6.804;2023-05-17T07:56:19;7.90;;;6.47;;
8478;SDS011;4276;49.354;6.804;2023-05-17T07:58:46;7.50;;;6.38;;
8478;SDS011;4276;49.354;6.804;2023-05-17T08:01:12;8.55;;;6.38;;
8478;SDS011;4276;49.354;6.804;2023-05-17T08:03:39;7.75;;;6.85;;
8478;SDS011;4276;49.354;6.804;2023-05-17T08:06:13;7.07;;;6.10;;
8478;SDS011;4276;49.354;6.804;2023-05-17T08:08:43;7.70;;;6.80;;
8478;SDS011;4276;49.354;6.804;2023-05-17T08:11:10;6.35;;;5.70;;
8478;SDS011;4276;49.354;6.804;2023-05-17T08:13:37;6.50;;;5.80;;
8478;SDS011;4276;49.354;6.804;2023-05-17T08:16:04;6.22;;;5.55;;
8478;SDS011;4276;49.354;6.804;2023-05-17T08:18:40;7.75;;;5.60;;
8478;SDS011;4276;49.354;6.804;2023-05-17T08:21:10;5.65;;;5.10;;
8478;SDS011;4276;49.354;6.804;2023-05-17T08:23:36;5.43;;;4.93;;
8478;SDS011;4276;49.354;6.804;2023-05-17T08:26:04;5.57;;;5.00;;
8478;SDS011;4276;49.354;6.804;2023-05-17T08:28:31;5.18;;;4.68;;
8478;SDS011;4276;49.354;6.804;2023-05-17T08:30:57;5.80;;;5.05;;
8478;SDS011;4276;49.354;6.804;2023-05-17T08:33:24;4.95;;;4.38;;
8478;SDS011;4276;49.354;6.804;2023-05-17T08:35:51;5.35;;;4.85;;
8478;SDS011;4276;49.354;6.804;2023-05-17T08:38:20;8.50;;;5.38;;
8478;SDS011;4276;49.354;6.804;2023-05-17T08:40:53;6.03;;;4.78;;
8478;SDS011;4276;49.354;6.804;2023-05-17T08:43:21;8.75;;;5.55;;
8478;SDS011;4276;49.354;6.804;2023-05-17T08:45:51;7.38;;;5.43;;
8478;SDS011;4276;49.354;6.804;2023-05-17T08:48:18;6.15;;;5.35;;
8478;SDS011;4276;49.354;6.804;2023-05-17T08:50:48;8.30;;;5.07;;
8478;SDS011;4276;49.354;6.804;2023-05-17T08:53:15;7.53;;;5.22;;
8478;SDS011;4276;49.354;6.804;2023-05-17T08:55:44;6.32;;;4.95;;
8478;SDS011;4276;49.354;6.804;2023-05-17T08:58:13;4.93;;;4.53;;
8478;SDS011;4276;49.354;6.804;2023-05-17T09:00:42;6.05;;;4.97;;
8478;SDS011;4276;49.354;6.804;2023-05-17T09:03:12;5.20;;;4.45;;
8478;SDS011;4276;49.354;6.804;2023-05-17T09:05:43;4.65;;;4.10;;
8478;SDS011;4276;49.354;6.804;2023-05-17T09:08:10;6.30;;;4.32;;
8478;SDS011;4276;49.354;6.804;2023-05-17T09:10:39;7.90;;;4.25;;
8478;SDS011;4276;49.354;6.804;2023-05-17T09:13:06;5.40;;;3.70;;
8478;SDS011;4276;49.354;6.804;2023-05-17T09:15:33;4.45;;;3.88;;
8478;SDS011;4276;49.354;6.804;2023-05-17T09:18:00;5.60;;;4.18;;
8478;SDS011;4276;49.354;6.804;2023-05-17T09:20:27;4.80;;;4.40;;
8478;SDS011;4276;49.354;6.804;2023-05-17T09:23:00;4.10;;;3.67;;
8478;SDS011;4276;49.354;6.804;2023-05-17T09:25:30;5.43;;;4.18;;
8478;SDS011;4276;49.354;6.804;2023-05-17T09:28:06;5.57;;;4.18;;
8478;SDS011;4276;49.354;6.804;2023-05-17T09:30:33;6.80;;;4.57;;
8478;SDS011;4276;49.354;6.804;2023-05-17T09:33:09;4.18;;;3.85;;
8478;SDS011;4276;49.354;6.804;2023-05-17T09:35:39;5.53;;;4.47;;
8478;SDS011;4276;49.354;6.804;2023-05-17T09:38:11;6.57;;;3.83;;
8478;SDS011;4276;49.354;6.804;2023-05-17T09:43:05;5.53;;;3.60;;
8478;SDS011;4276;49.354;6.804;2023-05-17T09:45:32;5.53;;;3.80;;
8478;SDS011;4276;49.354;6.804;2023-05-17T09:48:20;4.22;;;3.42;;
8478;SDS011;4276;49.354;6.804;2023-05-17T09:50:48;4.07;;;3.60;;
8478;SDS011;4276;49.354;6.804;2023-05-17T09:55:55;4.28;;;3.83;;
8478;SDS011;4276;49.354;6.804;2023-05-17T09:58:23;4.10;;;3.70;;
8478;SDS011;4276;49.354;6.804;2023-05-17T10:00:51;4.18;;;3.75;;
8478;SDS011;4276;49.354;6.804;2023-05-17T10:03:19;5.15;;;4.10;;
8478;SDS011;4276;49.354;6.804;2023-05-17T10:05:49;4.80;;;4.35;;
8478;SDS011;4276;49.354;6.804;2023-05-17T10:08:18;4.68;;;4.20;;
8478;SDS011;4276;49.354;6.804;2023-05-17T10:10:48;3.97;;;3.65;;
8478;SDS011;4276;49.354;6.804;2023-05-17T10:13:19;5.93;;;3.83;;
8478;SDS011;4276;49.354;6.804;2023-05-17T10:15:47;5.50;;;4.22;;
8478;SDS011;4276;49.354;6.804;2023-05-17T10:18:14;5.30;;;3.78;;
8478;SDS011;4276;49.354;6.804;2023-05-17T10:20:41;5.13;;;3.95;;
8478;SDS011;4276;49.354;6.804;2023-05-17T10:23:08;4.93;;;4.00;;
8478;SDS011;4276;49.354;6.804;2023-05-17T10:25:37;4.88;;;4.15;;
8478;SDS011;4276;49.354;6.804;2023-05-17T10:28:03;4.45;;;4.05;;
8478;SDS011;4276;49.354;6.804;2023-05-17T10:30:33;4.90;;;4.32;;
8478;SDS011;4276;49.354;6.804;2023-05-17T10:33:01;4.65;;;4.22;;
8478;SDS011;4276;49.354;6.804;2023-05-17T10:35:29;6.30;;;3.95;;
8478;SDS011;4276;49.354;6.804;2023-05-17T10:37:57;5.85;;;4.25;;
8478;SDS011;4276;49.354;6.804;2023-05-17T10:40:24;5.22;;;4.70;;
8478;SDS011;4276;49.354;6.804;2023-05-17T10:42:51;6.47;;;4.63;;
8478;SDS011;4276;49.354;6.804;2023-05-17T10:45:19;4.65;;;4.25;;
8478;SDS011;4276;49.354;6.804;2023-05-17T10:47:49;5.30;;;4.75;;
8478;SDS011;4276;49.354;6.804;2023-05-17T10:50:20;5.38;;;4.53;;
8478;SDS011;4276;49.354;6.804;2023-05-17T10:52:51;4.50;;;4.07;;
8478;SDS011;4276;49.354;6.804;2023-05-17T10:55:25;7.28;;;4.53;;
8478;SDS011;4276;49.354;6.804;2023-05-17T10:58:12;4.45;;;4.05;;
8478;SDS011;4276;49.354;6.804;2023-05-17T11:00:47;5.18;;;4.15;;
8478;SDS011;4276;49.354;6.804;2023-05-17T11:08:44;5.30;;;3.92;;
8478;SDS011;4276;49.354;6.804;2023-05-17T11:11:15;5.82;;;4.00;;
8478;SDS011;4276;49.354;6.804;2023-05-17T11:13:49;4.93;;;4.10;;
8478;SDS011;4276;49.354;6.804;2023-05-17T11:16:20;6.15;;;3.85;;
8478;SDS011;4276;49.354;6.804;2023-05-17T11:18:52;5.13;;;4.15;;
8478;SDS011;4276;49.354;6.804;2023-05-17T11:21:20;4.43;;;4.00;;
8478;SDS011;4276;49.354;6.804;2023-05-17T11:23:48;4.90;;;3.80;;
8478;SDS011;4276;49.354;6.804;2023-05-17T11:28:58;5.15;;;4.30;;
8478;SDS011;4276;49.354;6.804;2023-05-17T11:31:32;4.90;;;4.30;;
8478;SDS011;4276;49.354;6.804;2023-05-17T11:34:01;4.18;;;3.83;;
8478;SDS011;4276;49.354;6.804;2023-05-17T11:36:28;4.50;;;4.10;;
8478;SDS011;4276;49.354;6.804;2023-05-17T11:39:07;4.53;;;4.13;;
8478;SDS011;4276;49.354;6.804;2023-05-17T11:41:39;4.60;;;4.20;;
8478;SDS011;4276;49.354;6.804;2023-05-17T11:44:13;4.32;;;3.80;;
8478;SDS011;4276;49.354;6.804;2023-05-17T11:46:41;5.57;;;4.45;;
8478;SDS011;4276;49.354;6.804;2023-05-17T11:49:08;4.88;;;4.45;;
8478;SDS011;4276;49.354;6.804;2023-05-17T11:51:36;4.70;;;3.83;;
8478;SDS011;4276;49.354;6.804;2023-05-17T11:54:02;4.70;;;3.95;;
8478;SDS011;4276;49.354;6.804;2023-05-17T11:56:35;4.35;;;3.60;;
8478;SDS011;4276;49.354;6.804;2023-05-17T11:59:09;4.13;;;3.83;;
8478;SDS011;4276;49.354;6.804;2023-05-17T12:01:42;4.38;;;3.97;;
8478;SDS011;4276;49.354;6.804;2023-05-17T12:04:12;4.18;;;3.78;;
8478;SDS011;4276;49.354;6.804;2023-05-17T12:06:39;4.72;;;3.60;;
8478;SDS011;4276;49.354;6.804;2023-05-17T12:09:06;4.85;;;4.20;;
8478;SDS011;4276;49.354;6.804;2023-05-17T12:11:36;4.25;;;3.85;;
8478;SDS011;4276;49.354;6.804;2023-05-17T12:14:04;3.88;;;3.50;;
8478;SDS011;4276;49.354;6.804;2023-05-17T12:16:31;4.70;;;3.72;;
8478;SDS011;4276;49.354;6.804;2023-05-17T12:19:00;5.93;;;3.70;;
8478;SDS011;4276;49.354;6.804;2023-05-17T12:21:26;5.90;;;4.25;;
8478;SDS011;4276;49.354;6.804;2023-05-17T12:23:53;5.50;;;4.57;;
8478;SDS011;4276;49.354;6.804;2023-05-17T12:26:20;5.90;;;4.10;;
8478;SDS011;4276;49.354;6.804;2023-05-17T12:28:54;5.80;;;4.43;;
8478;SDS011;4276;49.354;6.804;2023-05-17T12:31:30;4.15;;;3.20;;
8478;SDS011;4276;49.354;6.804;2023-05-17T12:34:00;5.35;;;3.53;;
8478;SDS011;4276;49.354;6.804;2023-05-17T12:36:28;4.13;;;3.47;;
8478;SDS011;4276;49.354;6.804;2023-05-17T12:38:55;3.47;;;3.15;;
8478;SDS011;4276;49.354;6.804;2023-05-17T12:41:22;3.58;;;3.25;;
8478;SDS011;4276;49.354;6.804;2023-05-17T12:43:51;5.63;;;3.63;;
8478;SDS011;4276;49.354;6.804;2023-05-17T12:46:28;4.82;;;3.60;;
8478;SDS011;4276;49.354;6.804;2023-05-17T12:48:54;3.88;;;3.55;;
8478;SDS011;4276;49.354;6.804;2023-05-17T12:51:21;4.50;;;3.58;;
8478;SDS011;4276;49.354;6.804;2023-05-17T12:56:16;4.78;;;3.60;;
8478;SDS011;4276;49.354;6.804;2023-05-17T12:58:43;4.32;;;3.55;;
8478;SDS011;4276;49.354;6.804;2023-05-17T13:01:34;4.30;;;3.85;;
8478;SDS011;4276;49.354;6.804;2023-05-17T13:04:01;4.82;;;3.65;;
8478;SDS011;4276;49.354;6.804;2023-05-17T13:06:29;4.03;;;3.55;;
8478;SDS011;4276;49.354;6.804;2023-05-17T13:09:10;4.03;;;3.28;;
8478;SDS011;4276;49.354;6.804;2023-05-17T13:11:37;4.95;;;3.85;;
8478;SDS011;4276;49.354;6.804;2023-05-17T13:14:06;3.85;;;3.28;;
8478;SDS011;4276;49.354;6.804;2023-05-17T13:16:36;5.45;;;3.30;;
8478;SDS011;4276;49.354;6.804;2023-05-17T13:19:10;3.78;;;3.38;;
8478;SDS011;4276;49.354;6.804;2023-05-17T13:21:38;4.22;;;3.45;;
8478;SDS011;4276;49.354;6.804;2023-05-17T13:24:04;4.20;;;3.55;;
8478;SDS011;4276;49.354;6.804;2023-05-17T13:26:31;4.60;;;3.47;;
8478;SDS011;4276;49.354;6.804;2023-05-17T13:28:57;4.80;;;3.10;;
8478;SDS011;4276;49.354;6.804;2023-05-17T13:31:24;4.40;;;2.97;;
8478;SDS011;4276;49.354;6.804;2023-05-17T13:33:50;3.03;;;2.72;;
8478;SDS011;4276;49.354;6.804;2023-05-17T13:36:17;3.33;;;2.80;;
8478;SDS011;4276;49.354;6.804;2023-05-17T13:38:43;3.38;;;3.05;;
8478;SDS011;4276;49.354;6.804;2023-05-17T13:41:10;4.22;;;2.97;;
8478;SDS011;4276;49.354;6.804;2023-05-17T13:43:36;3.13;;;2.60;;
8478;SDS011;4276;49.354;6.804;2023-05-17T13:46:03;3.25;;;2.95;;
8478;SDS011;4276;49.354;6.804;2023-05-17T13:48:29;4.03;;;3.38;;
8478;SDS011;4276;49.354;6.804;2023-05-17T13:50:56;4.75;;;3.00;;
8478;SDS011;4276;49.354;6.804;2023-05-17T13:53:23;3.67;;;3.13;;
8478;SDS011;4276;49.354;6.804;2023-05-17T13:55:50;3.30;;;3.00;;
8478;SDS011;4276;49.354;6.804;2023-05-17T13:58:17;5.38;;;3.30;;
8478;SDS011;4276;49.354;6.804;2023-05-17T14:00:44;3.78;;;2.78;;
8478;SDS011;4276;49.354;6.804;2023-05-17T14:03:11;3.72;;;2.97;;
8478;SDS011;4276;49.354;6.804;2023-05-17T14:05:38;4.53;;;2.80;;
8478;SDS011;4276;49.354;6.804;2023-05-17T14:08:05;4.68;;;3.20;;
8478;SDS011;4276;49.354;6.804;2023-05-17T14:10:32;3.47;;;2.70;;
8478;SDS011;4276;49.354;6.804;2023-05-17T14:12:59;4.00;;;2.92;;
8478;SDS011;4276;49.354;6.804;2023-05-17T14:15:26;2.72;;;2.47;;
8478;SDS011;4276;49.354;6.804;2023-05-17T14:17:53;3.00;;;2.72;;
8478;SDS011;4276;49.354;6.804;2023-05-17T14:20:19;3.83;;;3.10;;
8478;SDS011;4276;49.354;6.804;2023-05-17T14:22:46;5.50;;;3.28;;
8478;SDS011;4276;49.354;6.804;2023-05-17T14:25:13;3.45;;;2.72;;
8478;SDS011;4276;49.354;6.804;2023-05-17T14:27:40;3.35;;;2.80;;
8478;SDS011;4276;49.354;6.804;2023-05-17T14:30:07;4.15;;;3.20;;
8478;SDS011;4276;49.354;6.804;2023-05-17T14:32:37;4.35;;;3.25;;
8478;SDS011;4276;49.354;6.804;2023-05-17T14:35:05;5.07;;;2.88;;
8478;SDS011;4276;49.354;6.804;2023-05-17T14:37:32;4.20;;;3.03;;
8478;SDS011;4276;49.354;6.804;2023-05-17T14:39:59;3.60;;;3.00;;
8478;SDS011;4276;49.354;6.804;2023-05-17T14:42:28;5.43;;;3.28;;
8478;SDS011;4276;49.354;6.804;2023-05-17T14:44:56;4.10;;;2.97;;
8478;SDS011;4276;49.354;6.804;2023-05-17T14:47:23;3.88;;;3.10;;
8478;SDS011;4276;49.354;6.804;2023-05-17T14:49:49;4.05;;;3.25;;
8478;SDS011;4276;49.354;6.804;2023-05-17T14:52:16;4.22;;;3.35;;
8478;SDS011;4276;49.354;6.804;2023-05-17T14:54:42;4.63;;;3.20;;
8478;SDS011;4276;49.354;6.804;2023-05-17T14:57:09;4.88;;;3.17;;
8478;SDS011;4276;49.354;6.804;2023-05-17T14:59:37;4.15;;;3.05;;
8478;SDS011;4276;49.354;6.804;2023-05-17T15:02:03;4.28;;;3.22;;
8478;SDS011;4276;49.354;6.804;2023-05-17T15:04:30;4.63;;;3.40;;
8478;SDS011;4276;49.354;6.804;2023-05-17T15:06:57;5.20;;;3.70;;
8478;SDS011;4276;49.354;6.804;2023-05-17T15:09:24;4.43;;;3.78;;
8478;SDS011;4276;49.354;6.804;2023-05-17T15:11:50;6.07;;;4.15;;
8478;SDS011;4276;49.354;6.804;2023-05-17T15:14:17;5.18;;;3.75;;
8478;SDS011;4276;49.354;6.804;2023-05-17T15:16:47;4.80;;;3.40;;
8478;SDS011;4276;49.354;6.804;2023-05-17T15:19:14;3.70;;;3.38;;
8478;SDS011;4276;49.354;6.804;2023-05-17T15:21:43;5.00;;;3.80;;
8478;SDS011;4276;49.354;6.804;2023-05-17T15:24:10;23.02;;;5.68;;
8478;SDS011;4276;49.354;6.804;2023-05-17T15:26:40;5.75;;;3.55;;
8478;SDS011;4276;49.354;6.804;2023-05-17T15:29:07;9.70;;;3.75;;
8478;SDS011;4276;49.354;6.804;2023-05-17T15:31:33;12.57;;;4.88;;
8478;SDS011;4276;49.354;6.804;2023-05-17T15:34:00;7.18;;;3.70;;
8478;SDS011;4276;49.354;6.804;2023-05-17T15:36:26;4.40;;;3.40;;
8478;SDS011;4276;49.354;6.804;2023-05-17T15:38:53;4.15;;;3.60;;
8478;SDS011;4276;49.354;6.804;2023-05-17T15:41:19;4.65;;;3.92;;